Pagina principale
METAR-TAF:

METAR-TAF

Aeroporti :

Aeroporto di Bergamo-Orio al Serio

Bergamo, Italia

latitudine: 45-40N, longitudine: 009-42E, altezza: 238 m

Osservazione

Il bollettino è stato emesso 6 ore e 36 minuti fa, alle 05:20 UTC
Vento 6 kt da nord/nord-est
Temperature 23°C
Umidità 61%
Pressione 1017 hPa
Visibilità 10 km o più
Nubi sparse ad un'altezza di 10000 ft

METAR: LIME 210520Z 02006KT 9999 SCT100 23/15 Q1017 NOSIG

Ora: 13:56 (11:56 UTC)

Previsione

Il bollettino è stato emesso 6 ore e 56 minuti fa, alle 05:00 UTC
Previsione valida dal 21 alle 06 UTC al 22 alle 06 UTC
Vento 5 kt da direzioni variabili
Visibilità 10 km o più
Nubi sparse ad un'altezza di 6000 ft

TAF: LIME 210500Z 2106/2206 VRB05KT 9999 SCT060

Osservazioni e previsioni meteorologiche di più di 4000 aeroporti (messaggi METAR e TAF).

Le stazioni disponibili sono rappresentate dai dischi gialli e rossi sulla carta.

Puntare il mouse per vedere il nome della stazione.

Clicca sopra per visualizzare le osservazioni e previsioni meteorologiche.

Per cambiare la mappa : fare clic sui pulsanti verdi con una croce nera per ingrandire, il pulsante verde con un trattino per diminuire, o sulla freccia verde per le mappe adiacenti.


METAR-TAF: